KQEN

Daegwallyeong Rw

Daegwallyeong Rw, South Korea
METAR KQEN 162230Z AUTO 25014G30KT 9999 CLR M08/M10 A2991 RMK A02 TSNO
Observed Flight Rules
Jan-16 @ 22:30 UTC (18 minutes ago) Visual Flight Rules
Wind Visibility Clouds
250° at 14 knots
 Gusting to 30 knots
10,000+ meters
  • Clear skies
Temperatures Readings
Current -8°C / 18°F
Dewpoint -10°C / 14°F
Humidity 86%
Altimeter 29.91" Hg
Pressure 1012.92 hPa
METAR KQEN 162230Z AUTO 25014G30KT 9999 CLR M08/M10 A2991 RMK A02 TSNO
Observed Flight Rules
Jan-16 @ 22:30 UTC
(18 minutes ago)
VFR
Wind Visibility
250° at 14 knots
 Gusting to 30 knots
10,000+ meters
Clouds
  • Clear skies
Temperature Dewpoint
-8°C / 18°F -10°C / 14°F
Humidity Altimeter Pressure
86% 29.91" Hg 1012.92 hPa